Time;durP1;ratioP1;P1;durP2;ratioP2;P2;SDS_P1;SDS_P2;PMS_P1;PMS_P2;Temp;Humidity;BMP_temperature;BMP_pressure;BME280_temperature;BME280_humidity;BME280_pressure;Samples;Min_cycle;Max_cycle;Signal;HPM_P1;HPM_P2
2023/06/14 00:00:43;;;;;;;3.70;2.92;;;;;;;12.40;94.20;101147.41;4994535;28;20050;-85
2023/06/14 00:03:11;;;;;;;3.38;2.80;;;;;;;12.46;94.08;101149.06;5008356;28;20043;-85
2023/06/14 00:05:42;;;;;;;5.63;3.65;;;;;;;12.43;95.03;101150.88;5001943;28;20042;-84
2023/06/14 00:08:09;;;;;;;5.05;3.38;;;;;;;12.29;96.01;101141.44;4983845;28;20056;-83
2023/06/14 00:10:36;;;;;;;4.28;2.90;;;;;;;12.31;95.29;101139.63;4981487;28;20046;-80
2023/06/14 00:13:04;;;;;;;4.07;3.33;;;;;;;12.23;96.17;101143.34;5012533;28;20088;-84
2023/06/14 00:15:31;;;;;;;3.85;3.20;;;;;;;12.21;95.78;101143.38;4982522;28;20046;-83
2023/06/14 00:18:01;;;;;;;4.10;3.45;;;;;;;12.18;96.17;101140.75;5012323;28;20046;-81
2023/06/14 00:20:28;;;;;;;4.07;2.95;;;;;;;12.14;96.83;101156.75;4987591;28;20053;-84
2023/06/14 00:22:55;;;;;;;4.38;3.35;;;;;;;12.12;97.88;101164.75;4990690;28;20042;-83
2023/06/14 00:25:25;;;;;;;4.47;3.20;;;;;;;11.98;98.76;101154.41;5004864;28;20063;-80
2023/06/14 00:27:56;;;;;;;5.60;3.67;;;;;;;11.90;98.95;101160.72;4992544;28;20511;-83
2023/06/14 00:30:23;;;;;;;3.88;3.45;;;;;;;11.74;99.92;101163.59;4995482;28;20049;-80
2023/06/14 00:32:49;;;;;;;6.25;3.40;;;;;;;11.67;100.00;101161.09;4991873;28;20100;-84
2023/06/14 00:35:16;;;;;;;4.95;3.33;;;;;;;11.57;100.00;101157.72;5005111;28;20128;-80
2023/06/14 00:37:43;;;;;;;5.32;3.30;;;;;;;11.57;100.00;101161.25;5000666;28;20133;-83
2023/06/14 00:40:10;;;;;;;5.18;3.85;;;;;;;11.61;100.00;101164.72;4996796;28;20037;-84
2023/06/14 00:42:37;;;;;;;4.78;4.05;;;;;;;11.59;100.00;101166.50;4995522;28;20077;-80
2023/06/14 00:45:06;;;;;;;4.03;3.55;;;;;;;11.47;100.00;101162.31;4984437;28;20057;-82
2023/06/14 00:47:35;;;;;;;5.97;3.50;;;;;;;11.35;100.00;101156.31;4989726;28;20071;-81
2023/06/14 00:50:07;;;;;;;5.22;3.42;;;;;;;11.39;100.00;101164.19;5008280;28;20042;-83
2023/06/14 00:52:34;;;;;;;4.90;3.58;;;;;;;11.41;100.00;101158.88;4986767;28;20060;-81
2023/06/14 00:55:01;;;;;;;3.67;3.33;;;;;;;11.34;100.00;101167.78;4988587;28;20132;-79
2023/06/14 00:57:29;;;;;;;5.78;3.65;;;;;;;11.26;100.00;101170.56;5020963;28;20114;-81
2023/06/14 00:59:56;;;;;;;5.10;3.58;;;;;;;11.16;100.00;101167.19;4984842;28;20061;-83
2023/06/14 01:02:24;;;;;;;4.88;4.03;;;;;;;11.14;100.00;101168.97;4998366;28;20140;-81
2023/06/14 01:04:51;;;;;;;5.45;3.40;;;;;;;11.04;100.00;101159.44;4988396;28;20045;-82
2023/06/14 01:07:41;;;;;;;4.95;3.45;;;;;;;11.04;100.00;101161.22;4992901;28;20042;-84
2023/06/14 01:10:07;;;;;;;4.38;3.58;;;;;;;11.06;100.00;101165.56;5010029;28;20037;-81
2023/06/14 01:12:58;;;;;;;4.72;3.47;;;;;;;11.06;100.00;101162.06;5003508;28;20159;-82
2023/06/14 01:15:24;;;;;;;6.03;3.55;;;;;;;10.93;100.00;101159.59;4986233;28;20128;-83
2023/06/14 01:17:53;;;;;;;4.00;3.35;;;;;;;11.05;100.00;101162.97;5004163;28;20045;-84
2023/06/14 01:20:21;;;;;;;5.13;3.70;;;;;;;11.02;100.00;101163.00;4983580;28;20048;-83
2023/06/14 01:22:55;;;;;;;4.78;3.70;;;;;;;10.95;100.00;101157.81;4998251;28;20132;-84
2023/06/14 01:25:23;;;;;;;4.53;3.60;;;;;;;10.93;100.00;101164.88;4994241;28;20054;-82
2023/06/14 01:27:51;;;;;;;5.78;3.60;;;;;;;10.89;100.00;101162.28;4986009;28;20079;-81
2023/06/14 01:30:19;;;;;;;4.60;3.78;;;;;;;10.86;100.00;101157.06;4981492;28;20062;-81
2023/06/14 01:32:47;;;;;;;4.43;3.72;;;;;;;10.81;100.00;101167.69;5005817;28;20114;-83
2023/06/14 01:35:14;;;;;;;5.72;3.95;;;;;;;10.87;100.00;101162.31;4981971;28;20046;-81
2023/06/14 01:37:42;;;;;;;5.63;4.13;;;;;;;10.80;100.00;101163.28;5004197;28;20037;-83
2023/06/14 01:40:10;;;;;;;5.30;3.60;;;;;;;10.76;100.00;101172.16;4985463;28;20499;-84
2023/06/14 01:42:38;;;;;;;4.53;3.70;;;;;;;10.63;100.00;101168.78;5003510;28;20137;-84
2023/06/14 01:45:05;;;;;;;4.97;3.63;;;;;;;10.64;100.00;101159.97;4993353;28;20064;-83
2023/06/14 01:47:33;;;;;;;6.65;3.88;;;;;;;10.65;100.00;101158.19;5005475;28;20061;-81
2023/06/14 01:50:00;;;;;;;5.22;3.88;;;;;;;10.65;100.00;101160.84;5018580;28;20046;-80
2023/06/14 01:52:27;;;;;;;6.63;4.05;;;;;;;10.67;100.00;101162.56;5009889;28;20462;-83
2023/06/14 01:54:53;;;;;;;5.47;3.60;;;;;;;10.57;100.00;101160.06;4993681;28;20057;-82
2023/06/14 01:57:21;;;;;;;23.92;5.10;;;;;;;10.52;100.00;101161.91;4985430;28;20140;-81
2023/06/14 01:59:49;;;;;;;5.38;3.15;;;;;;;10.59;100.00;101156.50;4992845;28;20052;-82
2023/06/14 02:02:16;;;;;;;5.15;3.90;;;;;;;10.64;100.00;101161.75;5003150;28;20080;-83
2023/06/14 02:04:42;;;;;;;5.65;3.78;;;;;;;10.60;100.00;101160.06;4989240;28;20069;-81
2023/06/14 02:07:09;;;;;;;5.55;3.97;;;;;;;10.63;100.00;101166.16;4978575;28;20472;-83
2023/06/14 02:09:36;;;;;;;6.47;4.00;;;;;;;10.62;100.00;101167.06;5011429;28;20141;-84
2023/06/14 02:12:03;;;;;;;4.85;3.80;;;;;;;10.60;100.00;101167.97;4992352;28;20486;-82
2023/06/14 02:14:29;;;;;;;4.68;3.72;;;;;;;10.70;100.00;101173.13;4984560;28;20162;-83
2023/06/14 02:16:56;;;;;;;7.28;4.95;;;;;;;10.67;100.00;101173.13;4988977;28;20740;-84
2023/06/14 02:19:23;;;;;;;6.88;4.10;;;;;;;10.78;100.00;101172.16;5001513;28;20056;-82
2023/06/14 02:21:49;;;;;;;6.32;3.88;;;;;;;10.84;100.00;101167.63;4989287;28;20093;-83
2023/06/14 02:24:16;;;;;;;5.50;4.03;;;;;;;10.90;100.00;101164.03;4986339;28;20531;-82
2023/06/14 02:26:43;;;;;;;5.68;4.07;;;;;;;10.92;100.00;101168.41;4997872;28;20037;-82
2023/06/14 02:29:12;;;;;;;5.63;3.97;;;;;;;10.96;100.00;101158.69;4986764;28;20045;-84
2023/06/14 02:31:40;;;;;;;7.60;4.20;;;;;;;11.06;100.00;101165.56;4985010;28;20548;-80
2023/06/14 02:34:08;;;;;;;5.13;3.95;;;;;;;11.02;100.00;101168.31;4992181;28;20104;-81
2023/06/14 02:36:41;;;;;;;4.90;3.85;;;;;;;11.00;100.00;101165.66;4989327;28;20051;-82
2023/06/14 02:39:11;;;;;;;5.15;3.85;;;;;;;10.99;100.00;101166.56;4988178;28;20096;-84
2023/06/14 02:41:38;;;;;;;6.20;4.20;;;;;;;11.01;100.00;101159.47;5005790;28;20053;-85
2023/06/14 02:44:05;;;;;;;5.38;3.78;;;;;;;10.94;100.00;101152.53;5022930;28;20049;-85
2023/06/14 02:46:32;;;;;;;5.15;4.30;;;;;;;10.95;100.00;101156.94;4982202;28;20136;-84
2023/06/14 02:48:59;;;;;;;6.13;4.05;;;;;;;11.02;100.00;101158.59;5001790;28;20069;-82
2023/06/14 02:51:26;;;;;;;4.78;4.22;;;;;;;10.93;100.00;101158.69;4992183;28;20050;-84
2023/06/14 02:53:53;;;;;;;6.75;4.45;;;;;;;10.96;100.00;101151.63;5008110;28;20057;-81
2023/06/14 02:56:19;;;;;;;6.30;4.03;;;;;;;10.97;100.00;101163.94;4985557;28;20045;-82
2023/06/14 02:58:48;;;;;;;6.25;4.40;;;;;;;10.91;100.00;101163.13;5000421;28;20038;-84
2023/06/14 03:01:16;;;;;;;5.30;4.00;;;;;;;10.80;100.00;101160.66;4986320;28;20581;-82
2023/06/14 03:03:43;;;;;;;4.93;3.95;;;;;;;10.73;100.00;101166.91;4983423;28;20125;-82
2023/06/14 03:06:13;;;;;;;4.80;4.13;;;;;;;10.85;100.00;101168.53;5011047;28;20049;-85
2023/06/14 03:08:41;;;;;;;7.97;4.88;;;;;;;10.76;100.00;101171.28;4993775;28;20037;-84
2023/06/14 03:11:09;;;;;;;5.80;4.28;;;;;;;10.66;100.00;101162.59;4987637;28;20038;-84
2023/06/14 03:13:35;;;;;;;6.90;4.40;;;;;;;10.65;100.00;101152.91;4993693;28;20130;-80
2023/06/14 03:16:02;;;;;;;9.13;4.88;;;;;;;10.56;100.00;101160.97;5026466;28;20172;-84
2023/06/14 03:18:30;;;;;;;6.32;4.47;;;;;;;10.56;100.00;101156.56;5010481;28;20384;-82
2023/06/14 03:20:57;;;;;;;5.93;4.50;;;;;;;10.55;100.00;101157.44;4983718;28;21021;-84
2023/06/14 03:23:25;;;;;;;7.45;4.50;;;;;;;10.50;100.00;101166.31;5002037;28;20088;-83
2023/06/14 03:25:52;;;;;;;7.80;4.80;;;;;;;10.51;100.00;101165.41;4991846;28;20045;-81
2023/06/14 03:28:18;;;;;;;7.20;4.80;;;;;;;10.51;100.00;101168.97;5008762;28;20044;-84
2023/06/14 03:30:45;;;;;;;5.63;4.03;;;;;;;10.45;100.00;101166.38;4992656;28;20069;-85
2023/06/14 03:33:12;;;;;;;5.28;4.60;;;;;;;10.45;100.00;101173.44;5002459;28;20487;-83
2023/06/14 03:35:39;;;;;;;7.45;4.88;;;;;;;10.51;100.00;101176.88;4987130;28;20042;-84
2023/06/14 03:38:06;;;;;;;5.40;4.28;;;;;;;10.38;100.00;101181.44;5001429;28;20051;-82
2023/06/14 03:40:33;;;;;;;4.70;3.83;;;;;;;10.39;100.00;101184.94;4987014;28;20046;-84
2023/06/14 03:43:00;;;;;;;5.18;4.47;;;;;;;10.43;100.00;101184.91;5002272;28;20491;-82
2023/06/14 03:45:26;;;;;;;5.35;4.25;;;;;;;10.41;100.00;101188.44;5013836;28;20587;-83
2023/06/14 03:47:54;;;;;;;5.07;4.18;;;;;;;10.44;100.00;101180.50;5011011;28;20077;-83
2023/06/14 03:50:21;;;;;;;4.90;4.32;;;;;;;10.43;100.00;101184.03;5008032;28;20068;-85
2023/06/14 03:52:51;;;;;;;5.32;4.60;;;;;;;10.47;100.00;101182.22;4985997;28;20553;-82
2023/06/14 03:55:17;;;;;;;6.13;4.93;;;;;;;10.53;100.00;101190.94;4988031;28;20129;-84
2023/06/14 03:58:05;;;;;;;5.13;4.18;;;;;;;10.49;100.00;101189.22;4990242;28;20559;-83
2023/06/14 04:00:39;;;;;;;;;;;;;;;10.50;100.00;101187.44;5015330;28;20040;-84
2023/06/14 04:03:06;;;;;;;7.53;5.38;;;;;;;10.49;100.00;101194.50;4978173;28;19945;-81
2023/06/14 04:05:33;;;;;;;5.93;5.32;;;;;;;10.51;100.00;101189.19;4984359;28;20397;-85
2023/06/14 04:08:00;;;;;;;5.70;4.53;;;;;;;10.53;100.00;101190.06;4992824;28;20048;-84
2023/06/14 04:10:27;;;;;;;5.90;4.35;;;;;;;10.55;100.00;101191.78;4983118;28;20038;-86
2023/06/14 04:12:54;;;;;;;7.50;4.20;;;;;;;10.62;100.00;101195.25;4989683;28;20498;-83
2023/06/14 04:15:21;;;;;;;5.20;4.70;;;;;;;10.66;100.00;101195.16;4993164;28;20034;-84
2023/06/14 04:17:51;;;;;;;6.57;4.90;;;;;;;10.64;100.00;101193.44;4987872;28;20086;-86
2023/06/14 04:20:18;;;;;;;5.80;4.85;;;;;;;10.65;100.00;101185.50;4990088;28;20050;-85
2023/06/14 04:22:44;;;;;;;6.97;4.65;;;;;;;10.72;100.00;101183.66;5006916;28;20426;-82
2023/06/14 04:25:14;;;;;;;5.28;4.43;;;;;;;10.81;100.00;101191.47;5012924;28;20041;-84
2023/06/14 04:27:41;;;;;;;6.82;4.78;;;;;;;10.83;100.00;101202.88;5018121;28;20415;-85
2023/06/14 04:30:08;;;;;;;4.68;4.22;;;;;;;10.86;100.00;101207.28;5021073;28;20046;-85
2023/06/14 04:32:38;;;;;;;6.47;4.80;;;;;;;10.98;100.00;101204.47;4992667;28;20041;-83
2023/06/14 04:35:07;;;;;;;5.47;4.47;;;;;;;10.97;100.00;101208.00;4986975;28;20415;-84
2023/06/14 04:37:34;;;;;;;6.32;4.07;;;;;;;10.97;100.00;101206.25;4990314;28;20528;-86
2023/06/14 04:40:00;;;;;;;5.50;4.53;;;;;;;11.12;100.00;101199.00;4986784;28;20129;-87
2023/06/14 04:42:31;;;;;;;4.88;4.30;;;;;;;11.30;100.00;101206.66;5018367;28;20068;-83
2023/06/14 04:44:58;;;;;;;5.72;4.32;;;;;;;11.36;100.00;101201.28;4987573;28;20057;-84
2023/06/14 04:47:29;;;;;;;6.75;4.32;;;;;;;11.51;100.00;101206.31;4991009;28;20137;-84
2023/06/14 04:50:01;;;;;;;6.90;4.40;;;;;;;11.49;100.00;101208.13;5003342;28;20053;-86
2023/06/14 04:52:30;;;;;;;4.82;3.80;;;;;;;11.55;100.00;101210.69;4981933;28;20049;-87
2023/06/14 04:54:56;;;;;;;5.18;4.38;;;;;;;11.60;100.00;101204.44;4982146;28;20046;-87
2023/06/14 04:57:25;;;;;;;7.18;5.00;;;;;;;11.89;100.00;101202.22;4988165;28;20048;-85
2023/06/14 04:59:55;;;;;;;7.45;4.47;;;;;;;11.95;100.00;101195.97;5002203;28;20042;-83
2023/06/14 05:02:23;;;;;;;10.30;5.45;;;;;;;12.19;100.00;101202.56;5000784;28;20072;-84
2023/06/14 05:04:50;;;;;;;4.78;3.95;;;;;;;12.26;100.00;101204.19;5005442;28;20042;-83
2023/06/14 05:07:17;;;;;;;6.03;4.60;;;;;;;12.45;100.00;101205.63;5019131;28;20042;-86
2023/06/14 05:09:44;;;;;;;5.32;4.05;;;;;;;12.61;100.00;101204.41;4987109;28;20049;-84
2023/06/14 05:12:11;;;;;;;6.20;4.40;;;;;;;12.71;100.00;101218.34;4999539;28;20527;-82
2023/06/14 05:14:39;;;;;;;4.70;3.92;;;;;;;13.19;100.00;101210.22;4991308;28;20050;-84
2023/06/14 05:17:05;;;;;;;5.45;4.28;;;;;;;13.90;100.00;101217.44;4984298;28;20129;-85
2023/06/14 05:19:32;;;;;;;5.03;4.10;;;;;;;14.38;100.00;101215.28;5007902;28;20056;-85
2023/06/14 05:21:59;;;;;;;5.80;4.40;;;;;;;14.53;99.62;101212.22;4986518;28;20054;-87
2023/06/14 05:24:26;;;;;;;5.15;3.70;;;;;;;14.51;100.00;101218.50;4988241;28;20053;-83
2023/06/14 05:26:53;;;;;;;5.45;3.58;;;;;;;14.56;100.00;101213.94;5005243;28;20041;-86
2023/06/14 05:29:20;;;;;;;7.10;4.25;;;;;;;14.63;100.00;101211.06;4996937;28;20069;-84
2023/06/14 05:31:46;;;;;;;6.60;4.20;;;;;;;14.77;100.00;101212.44;4978643;28;20057;-85
2023/06/14 05:34:13;;;;;;;7.68;4.18;;;;;;;14.90;95.89;101219.16;4987706;28;20042;-86
2023/06/14 05:36:42;;;;;;;4.78;4.03;;;;;;;15.11;97.20;101214.97;4986145;28;20057;-83
2023/06/14 05:39:09;;;;;;;191.15;31.23;;;;;;;15.73;92.13;101209.50;4985297;28;20161;-84
2023/06/14 05:41:35;;;;;;;15.13;5.43;;;;;;;17.31;81.62;101201.97;4980997;28;20112;-85
2023/06/14 05:44:02;;;;;;;11.23;4.05;;;;;;;18.57;71.68;101212.66;4984897;28;20044;-85
2023/06/14 05:46:29;;;;;;;6.68;4.18;;;;;;;18.80;68.80;101208.13;4988800;28;20128;-85
2023/06/14 05:48:56;;;;;;;6.15;3.78;;;;;;;18.74;68.22;101201.22;4986343;28;20044;-84
2023/06/14 05:51:24;;;;;;;5.68;3.63;;;;;;;18.50;69.47;101208.53;5017152;28;20045;-85
2023/06/14 05:53:52;;;;;;;7.68;3.75;;;;;;;18.82;68.73;101207.09;4997108;28;20034;-86
2023/06/14 05:56:19;;;;;;;5.50;3.50;;;;;;;19.43;64.57;101208.72;4988780;28;20076;-83
2023/06/14 05:58:47;;;;;;;8.52;3.80;;;;;;;19.88;62.05;101212.75;4985056;28;20049;-85
2023/06/14 06:01:14;;;;;;;9.00;4.25;;;;;;;20.22;60.58;101210.09;5011248;28;20054;-85
2023/06/14 06:03:41;;;;;;;7.45;3.75;;;;;;;20.37;59.61;101212.94;4987069;28;20080;-83
2023/06/14 06:06:08;;;;;;;4.22;3.50;;;;;;;20.12;58.89;101216.03;5004865;28;20133;-85
2023/06/14 06:08:35;;;;;;;6.93;3.55;;;;;;;19.87;58.47;101222.63;4984816;28;20566;-85
2023/06/14 06:11:01;;;;;;;6.80;3.65;;;;;;;19.92;59.80;101227.75;4982507;28;20104;-86
2023/06/14 06:13:28;;;;;;;6.40;3.90;;;;;;;19.89;60.02;101217.19;4990358;28;20038;-84
2023/06/14 06:15:56;;;;;;;3.97;3.42;;;;;;;19.78;60.35;101219.53;5003229;28;20050;-85
2023/06/14 06:18:23;;;;;;;5.60;3.70;;;;;;;19.82;59.81;101216.63;4975530;28;20106;-85
2023/06/14 06:20:50;;;;;;;7.05;3.75;;;;;;;19.85;60.21;101218.28;5001825;28;20056;-85
2023/06/14 06:23:16;;;;;;;6.70;4.40;;;;;;;19.92;59.76;101220.56;5015742;28;20044;-85
2023/06/14 06:25:43;;;;;;;9.02;4.63;;;;;;;19.98;57.17;101211.34;4987936;28;20045;-86
2023/06/14 06:28:10;;;;;;;10.48;4.25;;;;;;;19.76;59.69;101216.03;4983080;28;20513;-85
2023/06/14 06:30:38;;;;;;;14.50;5.88;;;;;;;20.10;56.98;101217.91;5007846;28;20488;-85
2023/06/14 06:33:05;;;;;;;11.45;5.50;;;;;;;20.41;57.70;101218.03;4985722;28;20096;-85
2023/06/14 06:35:32;;;;;;;7.70;5.38;;;;;;;20.54;55.91;101212.06;4988415;28;20041;-85
2023/06/14 06:38:00;;;;;;;7.72;5.78;;;;;;;20.70;54.81;101224.59;5000387;28;20041;-84
2023/06/14 06:40:27;;;;;;;10.00;6.75;;;;;;;20.84;52.97;101220.28;5016825;28;20042;-86
2023/06/14 06:42:54;;;;;;;8.30;5.70;;;;;;;21.06;53.36;101223.53;4972810;28;20043;-88
2023/06/14 06:45:23;;;;;;;6.95;5.47;;;;;;;21.26;51.84;101217.03;4987438;28;20045;-87
2023/06/14 06:47:51;;;;;;;9.40;5.93;;;;;;;21.23;51.54;101210.03;4985537;28;20045;-87
2023/06/14 06:50:19;;;;;;;10.45;5.78;;;;;;;21.38;52.73;101219.09;4992078;28;20470;-86
2023/06/14 06:52:47;;;;;;;6.75;5.53;;;;;;;21.58;52.16;101217.94;4990148;28;20128;-86
2023/06/14 06:55:15;;;;;;;7.82;5.22;;;;;;;21.78;52.07;101217.69;4988750;28;20038;-88
2023/06/14 06:57:42;;;;;;;9.75;5.20;;;;;;;21.64;50.05;101215.78;4993301;28;20049;-85
2023/06/14 07:00:10;;;;;;;6.80;4.57;;;;;;;22.04;49.80;101205.38;4999809;28;20042;-86
2023/06/14 07:02:36;;;;;;;6.82;4.60;;;;;;;22.36;49.27;101211.50;5005329;28;20045;-85
2023/06/14 07:05:04;;;;;;;6.45;4.55;;;;;;;22.10;46.57;101205.03;4984801;28;20478;-86
2023/06/14 07:07:31;;;;;;;10.90;5.20;;;;;;;22.13;45.83;101217.44;4995766;28;20045;-86
2023/06/14 07:09:58;;;;;;;5.28;4.00;;;;;;;22.22;45.22;101218.72;4996793;28;20458;-86
2023/06/14 07:12:25;;;;;;;6.13;3.80;;;;;;;22.21;43.77;101222.38;5012692;28;20045;-84
2023/06/14 07:14:52;;;;;;;7.32;3.58;;;;;;;22.22;44.94;101224.97;4992282;28;20037;-85
2023/06/14 07:17:19;;;;;;;8.23;4.00;;;;;;;22.24;43.00;101227.56;4987914;28;20081;-87
2023/06/14 07:19:46;;;;;;;6.50;3.90;;;;;;;22.61;43.48;101224.34;5010797;28;20053;-84
2023/06/14 07:22:13;;;;;;;7.70;4.65;;;;;;;22.66;42.82;101221.38;4994159;28;20513;-86
2023/06/14 07:24:40;;;;;;;5.05;3.47;;;;;;;22.76;40.53;101222.53;4993576;28;20073;-86
2023/06/14 07:27:08;;;;;;;5.05;3.88;;;;;;;22.43;41.38;101229.03;5011877;28;20471;-85
2023/06/14 07:29:34;;;;;;;5.13;3.50;;;;;;;22.33;42.48;101229.69;4990606;28;20426;-83
2023/06/14 07:32:01;;;;;;;6.53;4.10;;;;;;;22.35;42.53;101228.63;4985263;28;20088;-86
2023/06/14 07:34:28;;;;;;;107.00;18.92;;;;;;;22.53;42.12;101223.09;5003678;28;20048;-86
2023/06/14 07:36:55;;;;;;;11.90;4.25;;;;;;;22.53;41.85;101218.56;4984082;28;20037;-84
2023/06/14 07:39:22;;;;;;;5.68;3.60;;;;;;;22.66;40.07;101226.75;5007380;28;20095;-87
2023/06/14 07:41:48;;;;;;;5.65;3.20;;;;;;;22.73;41.01;101226.28;4999604;28;20046;-86
2023/06/14 07:44:16;;;;;;;5.25;3.45;;;;;;;22.58;41.08;101216.47;5003408;28;20038;-85
2023/06/14 07:46:43;;;;;;;5.45;3.38;;;;;;;22.62;40.95;101222.53;5007166;28;20142;-85
2023/06/14 07:49:10;;;;;;;4.60;3.25;;;;;;;22.79;40.94;101211.59;5008721;28;20115;-85
2023/06/14 07:51:37;;;;;;;6.18;3.35;;;;;;;22.92;40.98;101217.09;5014898;28;20095;-84
2023/06/14 07:54:08;;;;;;;9.05;4.13;;;;;;;22.13;41.65;101214.75;4999638;28;20041;-86
2023/06/14 07:56:35;;;;;;;5.85;3.90;;;;;;;22.38;42.62;101217.69;5007607;28;20538;-83
2023/06/14 07:59:02;;;;;;;8.60;4.30;;;;;;;22.71;41.25;101213.91;4982640;28;20125;-84
2023/06/14 08:01:31;;;;;;;6.80;3.50;;;;;;;22.85;40.70;101216.59;4992457;28;20034;-84
2023/06/14 08:03:58;;;;;;;5.55;3.70;;;;;;;23.01;41.10;101208.41;5025392;28;20136;-85
2023/06/14 08:06:25;;;;;;;6.68;4.45;;;;;;;23.14;41.21;101205.81;4996321;28;20557;-84
2023/06/14 08:08:51;;;;;;;6.95;3.80;;;;;;;23.32;40.68;101201.94;5010548;28;20056;-86
2023/06/14 08:11:18;;;;;;;6.32;3.78;;;;;;;23.31;40.36;101206.44;4994156;28;20052;-86
2023/06/14 08:13:46;;;;;;;4.53;3.38;;;;;;;23.39;41.04;101208.66;4979665;28;20517;-84
2023/06/14 08:16:14;;;;;;;8.77;4.25;;;;;;;23.44;40.44;101211.91;4997452;28;20041;-86
2023/06/14 08:18:41;;;;;;;5.53;4.03;;;;;;;23.52;40.29;101214.09;4992951;28;20148;-85
2023/06/14 08:21:08;;;;;;;6.43;3.80;;;;;;;23.70;40.71;101209.34;4978096;28;20579;-86
2023/06/14 08:23:36;;;;;;;6.13;4.15;;;;;;;23.30;39.88;101217.34;5004141;28;20046;-86
2023/06/14 08:26:04;;;;;;;4.57;4.13;;;;;;;23.70;39.99;101218.28;4999174;28;20057;-85
2023/06/14 08:28:30;;;;;;;4.90;3.92;;;;;;;23.31;38.88;101216.38;5008884;28;20854;-83
2023/06/14 08:30:57;;;;;;;4.32;3.85;;;;;;;23.15;40.27;101210.25;5004892;28;20088;-85
2023/06/14 08:33:24;;;;;;;4.15;3.65;;;;;;;23.17;39.85;101211.00;5000128;28;20040;-85
2023/06/14 08:35:51;;;;;;;6.35;3.65;;;;;;;22.97;40.07;101210.44;4982523;28;20538;-86
2023/06/14 08:38:18;;;;;;;5.00;3.60;;;;;;;22.76;40.36;101214.44;5000348;28;20468;-84
2023/06/14 08:40:45;;;;;;;6.82;4.05;;;;;;;22.69;40.67;101211.25;4982590;28;20049;-85
2023/06/14 08:43:12;;;;;;;5.53;3.63;;;;;;;22.44;41.93;101211.91;5001323;28;20048;-84
2023/06/14 08:45:39;;;;;;;593.80;102.78;;;;;;;22.27;41.96;101205.84;4988759;28;20125;-85
2023/06/14 08:48:07;;;;;;;112.00;20.65;;;;;;;22.33;40.47;101206.34;4985977;28;20061;-85
2023/06/14 08:50:36;;;;;;;36.78;8.30;;;;;;;22.36;40.91;101216.03;4986862;28;20066;-84
2023/06/14 08:53:09;;;;;;;9.52;4.22;;;;;;;22.10;42.12;101201.47;5020137;28;20068;-84
2023/06/14 08:55:38;;;;;;;7.03;3.80;;;;;;;22.36;41.66;101203.44;4986219;28;20105;-85
2023/06/14 08:58:09;;;;;;;101.23;17.90;;;;;;;22.36;41.64;101208.81;4995022;28;20171;-85
2023/06/14 09:00:41;;;;;;;22.58;6.00;;;;;;;22.39;42.08;101205.09;4987545;28;20797;-86
2023/06/14 09:03:13;;;;;;;6.30;3.47;;;;;;;22.24;41.39;101206.88;4980012;28;20046;-82
2023/06/14 09:05:40;;;;;;;8.27;4.38;;;;;;;22.46;41.10;101207.31;5012443;28;20121;-85
2023/06/14 09:08:07;;;;;;;5.95;3.78;;;;;;;22.53;41.85;101212.31;4996042;28;20146;-83
2023/06/14 09:10:37;;;;;;;4.43;3.00;;;;;;;22.50;40.96;101210.69;5000331;28;20045;-84
2023/06/14 09:13:04;;;;;;;6.78;3.30;;;;;;;22.41;40.76;101208.56;4989669;28;20042;-82
2023/06/14 09:15:35;;;;;;;5.55;3.85;;;;;;;22.15;41.95;101208.31;5011599;28;20072;-81
2023/06/14 09:18:02;;;;;;;4.55;3.28;;;;;;;22.69;40.42;101205.88;4991078;28;20042;-82
2023/06/14 09:20:30;;;;;;;4.30;3.17;;;;;;;23.01;40.19;101198.50;5002111;28;20054;-81
2023/06/14 09:22:58;;;;;;;3.78;3.10;;;;;;;22.99;38.63;101205.81;5026389;28;20046;-84
2023/06/14 09:25:25;;;;;;;5.40;2.97;;;;;;;23.06;39.53;101202.75;5018359;28;20040;-83
2023/06/14 09:28:06;;;;;;;5.20;3.35;;;;;;;22.79;37.31;101213.41;4999076;28;20495;-81
2023/06/14 09:30:33;;;;;;;272.33;36.80;;;;;;;22.96;38.63;101191.69;4988761;28;20046;-81
2023/06/14 09:33:00;;;;;;;5.93;2.90;;;;;;;23.05;37.79;101191.09;5009292;28;20046;-82
2023/06/14 09:35:31;;;;;;;7.35;3.47;;;;;;;23.04;37.38;101178.59;5011045;28;20279;-80
2023/06/14 09:37:58;;;;;;;4.95;3.30;;;;;;;23.07;36.77;101193.69;4994282;28;20116;-81
2023/06/14 09:40:28;;;;;;;6.38;3.50;;;;;;;23.05;37.71;101192.94;4993359;28;20053;-81
2023/06/14 09:42:58;;;;;;;5.40;3.50;;;;;;;23.17;37.38;101186.75;5004389;28;20050;-81
2023/06/14 09:45:29;;;;;;;19.42;5.20;;;;;;;23.37;37.63;101183.59;4984681;28;20042;-81
2023/06/14 09:47:57;;;;;;;8.00;3.13;;;;;;;23.55;37.59;101184.25;4988532;28;20057;-82
2023/06/14 09:50:34;;;;;;;6.13;3.20;;;;;;;23.58;36.70;101178.63;4989727;28;20109;-80
2023/06/14 09:53:08;;;;;;;4.53;2.95;;;;;;;23.31;36.18;101175.94;4993427;28;20083;-83
2023/06/14 09:55:37;;;;;;;5.72;2.85;;;;;;;23.29;37.07;101173.34;5002965;28;20136;-81
2023/06/14 09:58:11;;;;;;;4.20;2.90;;;;;;;23.72;37.29;101172.34;5008114;28;20041;-81
2023/06/14 10:00:39;;;;;;;7.22;3.08;;;;;;;24.01;37.18;101173.94;4995975;28;20045;-80
2023/06/14 10:03:14;;;;;;;9.32;3.58;;;;;;;24.26;36.42;101162.28;4986204;28;20107;-81
2023/06/14 10:05:43;;;;;;;5.93;3.13;;;;;;;24.66;35.88;101163.09;5006881;28;20034;-81
2023/06/14 10:08:15;;;;;;;5.25;3.22;;;;;;;24.87;35.25;101163.38;5007945;28;20279;-82
2023/06/14 10:10:43;;;;;;;5.93;3.42;;;;;;;24.44;34.38;101168.28;5010454;28;20042;-82
2023/06/14 10:13:12;;;;;;;3.60;2.80;;;;;;;24.65;34.28;101166.75;4996698;28;20045;-80
2023/06/14 10:15:55;;;;;;;4.30;3.33;;;;;;;24.79;35.09;101167.59;4989189;28;20087;-80
2023/06/14 10:18:34;;;;;;;4.78;3.40;;;;;;;24.83;33.34;101169.97;4976069;28;20077;-81
2023/06/14 10:21:42;;;;;;;9.13;3.50;;;;;;;24.91;32.52;101164.88;4981216;28;20113;-81
2023/06/14 10:24:15;;;;;;;5.18;2.97;;;;;;;24.86;32.51;101167.03;5000965;28;20041;-82
2023/06/14 10:26:54;;;;;;;7.10;3.17;;;;;;;24.39;32.36;101167.75;4980560;28;20558;-80
2023/06/14 10:29:26;;;;;;;5.60;3.00;;;;;;;24.40;33.58;101167.63;4996665;28;20049;-80
2023/06/14 10:31:56;;;;;;;5.32;2.90;;;;;;;24.64;33.49;101154.22;4996650;28;20125;-81
2023/06/14 10:34:28;;;;;;;6.30;3.40;;;;;;;24.61;33.68;101156.28;5001112;28;20117;-80
2023/06/14 10:37:11;;;;;;;15.32;4.55;;;;;;;24.44;34.35;101162.88;5003183;28;20609;-81
2023/06/14 10:39:44;;;;;;;5.05;3.28;;;;;;;24.62;32.84;101150.75;5013568;28;20125;-81
2023/06/14 10:42:11;;;;;;;4.88;2.70;;;;;;;24.85;33.51;101150.94;4985963;28;20100;-81
2023/06/14 10:44:39;;;;;;;4.97;3.10;;;;;;;24.88;34.15;101139.91;4978330;28;20157;-79
2023/06/14 10:47:22;;;;;;;5.93;3.30;;;;;;;24.55;34.02;101156.69;5022098;28;20507;-81
2023/06/14 10:50:05;;;;;;;6.53;3.22;;;;;;;24.58;34.92;101157.38;4986578;28;20067;-79
2023/06/14 10:52:38;;;;;;;6.13;2.85;;;;;;;24.79;33.80;101151.38;5000407;28;20056;-80
2023/06/14 10:55:11;;;;;;;6.53;3.45;;;;;;;24.67;34.14;101145.91;5006505;28;20068;-79
2023/06/14 10:57:55;;;;;;;4.85;3.20;;;;;;;24.40;34.44;101147.88;5004760;28;20507;-80
2023/06/14 11:00:28;;;;;;;6.35;2.72;;;;;;;24.25;35.67;101147.06;5014366;28;20113;-80
2023/06/14 11:03:08;;;;;;;3.35;2.50;;;;;;;24.15;34.59;101141.44;4984897;28;20048;-79
2023/06/14 11:05:47;;;;;;;4.82;2.85;;;;;;;24.26;34.68;101142.53;5020827;28;20057;-79
2023/06/14 11:08:36;;;;;;;5.50;2.97;;;;;;;24.35;34.76;101133.81;5019517;28;20140;-79
2023/06/14 11:11:06;;;;;;;3.72;3.05;;;;;;;24.23;34.28;101137.34;5025480;28;20041;-81
2023/06/14 11:13:33;;;;;;;6.75;3.08;;;;;;;24.29;33.93;101131.50;4987068;28;20073;-81
2023/06/14 11:16:00;;;;;;;3.92;2.90;;;;;;;24.32;33.92;101132.19;4994120;28;20408;-80
2023/06/14 11:18:30;;;;;;;5.28;2.88;;;;;;;24.23;34.44;101127.41;4986247;28;20411;-81
2023/06/14 11:20:57;;;;;;;7.40;3.00;;;;;;;24.24;34.88;101131.84;5004738;28;20049;-81
2023/06/14 11:23:24;;;;;;;4.90;2.78;;;;;;;24.08;35.17;101132.03;4980277;28;20133;-80
2023/06/14 11:25:51;;;;;;;4.88;2.90;;;;;;;24.12;35.29;101122.75;5016617;28;20097;-79
2023/06/14 11:28:21;;;;;;;5.00;2.80;;;;;;;24.17;34.96;101126.97;4999540;28;20053;-79